Ana Sayfa
METAR-TAF:

METAR-TAF

Havaalanları :

Kahire Uluslararası Havalimanı

Kahire, Mısır

Enlem: 30-08N, Boylam: 031-24E, yükseklik: 64 m

Güncel hava durumu gözlemi

Rapor saat 23:00 UTC de 29 dakika önce yapıldı.
Rüzgar güneydan 4 kt
Sıcaklık 13°C
Nem 51%
Basınç 1022 hPa
Görüş mesafesi 10 km veya daha fazla
2500 ft yükseklikte parçalı bulutlu

METAR: HECA 162300Z 17004KT 9999 SCT025 13/03 Q1022 NOSIG

Saat: 01:29 (23:29 UTC)

Tahmin

Rapor saat 17:00 UTC de 6 saat ve 29 dakika önce yapıldı.
Ayın 16'si saat 18 UTC'den ayın 17'si saat 24 UTC'ye kadar geçerli Tahmin
Rüzgar güneybatıdan 14 kt
Görüş mesafesi 10 km veya daha fazla
2500 ft yükseklikte parçalı bulutlu

TAF: HECA 161700Z 1618/1724 23014KT 9999 SCT025

4.000'den fazla havaalanı için hava durumu gözlemleri ve tahminleri (METAR ve TAF raporları).

Kullanılabilir istasyonlar harita üzerinde sarı ve kırmızı noktalarla gösterilir.

İstasyonun adını görmek için fareyi noktanın üzerinde gezdirin.

Sonrasında hava gözlem ve tahminlerini görmek için tıklayın.

Haritayı değiştirmek için: yaklaştırmak için siyah artı işaretli yeşil düğmeye ve uzaklaştırmak için de eksi işaretli düğmeye hızla tıklayın; bitişik haritalar için yeşil okları kullanın.


METAR-TAF: